Time;durP1;ratioP1;P1;durP2;ratioP2;P2;SDS_P1;SDS_P2;PMS_P1;PMS_P2;Temp;Humidity;BMP_temperature;BMP_pressure;BME280_temperature;BME280_humidity;BME280_pressure;Samples;Min_cycle;Max_cycle;Signal;HPM_P1;HPM_P2
2024/01/22 00:00:29;;;;;;;28.83;21.17;;;;;;;0.21;100.00;101003.72;5035092;28;20055;-66
2024/01/22 00:03:34;;;;;;;45.00;27.98;;;;;;;0.25;100.00;100998.59;5034471;28;20311;-66
2024/01/22 00:06:41;;;;;;;39.45;22.13;;;;;;;0.21;100.00;100982.31;5035063;28;20407;-67
2024/01/22 00:09:46;;;;;;;30.52;17.65;;;;;;;0.16;100.00;100982.34;5035170;28;20514;-67
2024/01/22 00:12:58;;;;;;;25.80;18.08;;;;;;;0.19;100.00;100977.19;5035256;28;20092;-67
2024/01/22 00:20:13;;;;;;;20.73;14.77;;;;;;;0.28;100.00;100945.41;5033998;28;20060;-67
2024/01/22 00:23:18;;;;;;;25.23;15.45;;;;;;;0.20;100.00;100935.16;5035288;28;20418;-67
2024/01/22 00:26:33;;;;;;;22.20;15.13;;;;;;;0.13;100.00;100930.91;5035098;28;20411;-67
2024/01/22 00:29:37;;;;;;;22.15;15.38;;;;;;;0.23;100.00;100917.16;5035231;28;20103;-67
2024/01/22 00:32:46;;;;;;;30.65;18.00;;;;;;;0.15;100.00;100913.75;5034979;28;20044;-67
2024/01/22 00:35:51;;;;;;;31.42;20.88;;;;;;;0.09;100.00;100918.06;5034837;28;20125;-67
2024/01/22 00:38:57;;;;;;;37.35;22.75;;;;;;;0.12;100.00;100923.19;5034719;28;20056;-67
2024/01/22 00:42:06;;;;;;;26.38;16.58;;;;;;;0.07;100.00;100914.66;5034704;28;20040;-67
2024/01/22 00:45:17;;;;;;;;;;;;;;;0.17;100.00;100917.19;5055867;28;20095;-67
2024/01/22 00:48:29;;;;;;;31.30;16.75;;;;;;;0.18;100.00;100908.59;5056338;28;20421;-67
2024/01/22 00:51:33;;;;;;;27.95;15.52;;;;;;;0.11;100.00;100904.34;5021124;28;20075;-67
2024/01/22 00:54:38;;;;;;;22.50;15.07;;;;;;;0.19;100.00;100897.47;5033763;28;20111;-67
2024/01/22 00:57:50;;;;;;;21.30;13.02;;;;;;;0.31;100.00;100898.25;5033913;28;20045;-67
2024/01/22 01:00:59;;;;;;;25.33;14.47;;;;;;;0.18;100.00;100895.72;5034246;28;20048;-67
2024/01/22 01:04:21;;;;;;;21.45;15.48;;;;;;;0.29;100.00;100890.56;5034373;28;20318;-67
2024/01/22 01:07:35;;;;;;;23.25;16.10;;;;;;;0.34;100.00;100882.81;5034221;28;20510;-67
2024/01/22 01:10:51;;;;;;;23.98;15.13;;;;;;;0.44;100.00;100877.59;5034108;28;20064;-67
2024/01/22 01:13:57;;;;;;;26.65;18.08;;;;;;;0.33;100.00;100881.97;5033362;28;20076;-67
2024/01/22 01:17:09;;;;;;;25.02;16.77;;;;;;;0.41;100.00;100879.34;5034052;28;20419;-67
2024/01/22 01:20:28;;;;;;;26.65;17.60;;;;;;;0.54;100.00;100862.13;5034127;28;20044;-67
2024/01/22 01:23:40;;;;;;;23.38;15.63;;;;;;;0.49;100.00;100846.72;5034335;28;20137;-67
2024/01/22 01:27:07;;;;;;;27.23;17.42;;;;;;;0.38;100.00;100846.81;5033682;28;20060;-67
2024/01/22 01:30:31;;;;;;;26.33;17.70;;;;;;;0.42;100.00;100834.78;5033517;28;20435;-67
2024/01/22 01:33:43;;;;;;;24.23;16.55;;;;;;;0.40;100.00;100832.19;5033963;28;20099;-67
2024/01/22 01:36:59;;;;;;;27.92;16.35;;;;;;;0.47;100.00;100827.84;5033422;28;20131;-66
2024/01/22 01:40:24;;;;;;;25.60;17.20;;;;;;;0.44;100.00;100822.72;5033700;28;20407;-67
2024/01/22 01:43:52;;;;;;;22.92;15.90;;;;;;;0.42;100.00;100820.19;5033578;28;20056;-67
2024/01/22 01:47:07;;;;;;;25.70;15.07;;;;;;;0.40;100.00;100785.03;5033617;28;20044;-67
2024/01/22 01:50:23;;;;;;;23.67;17.80;;;;;;;0.43;100.00;100790.16;5033472;28;20044;-67
2024/01/22 01:53:33;;;;;;;21.20;15.23;;;;;;;0.37;100.00;100785.91;5032791;28;20040;-66
2024/01/22 01:56:54;;;;;;;22.98;15.07;;;;;;;0.53;100.00;100789.22;5033108;28;20609;-67
2024/01/22 02:00:27;;;;;;;20.38;13.75;;;;;;;0.40;100.00;100777.31;5033283;28;20091;-67
2024/01/22 02:03:34;;;;;;;16.20;10.15;;;;;;;0.53;100.00;100765.22;5032380;28;20043;-67
2024/01/22 02:06:50;;;;;;;16.83;9.95;;;;;;;0.57;100.00;100757.47;5031860;28;20059;-67
2024/01/22 02:10:13;;;;;;;16.60;9.55;;;;;;;0.81;100.00;100747.84;5032819;28;20099;-67
2024/01/22 02:13:28;;;;;;;14.27;7.72;;;;;;;0.83;100.00;100748.66;5032090;28;20119;-67
2024/01/22 02:16:43;;;;;;;18.88;15.80;;;;;;;0.81;100.00;100750.44;5031922;28;20044;-67
2024/01/22 02:20:02;;;;;;;28.90;23.67;;;;;;;0.79;100.00;100741.84;5032004;28;20121;-66
2024/01/22 02:23:24;;;;;;;8.30;6.07;;;;;;;0.85;100.00;100728.94;5031740;28;20059;-67
2024/01/22 02:26:34;;;;;;;16.05;11.60;;;;;;;0.67;100.00;100733.38;5031944;28;20098;-67
2024/01/22 02:29:47;;;;;;;12.70;9.77;;;;;;;0.76;100.00;100736.72;5032595;28;20068;-67
2024/01/22 02:32:59;;;;;;;12.50;6.45;;;;;;;0.76;100.00;100732.44;5032159;28;20131;-67
2024/01/22 02:36:19;;;;;;;11.02;7.55;;;;;;;0.90;100.00;100730.59;5033003;28;20124;-67
2024/01/22 02:39:42;;;;;;;10.70;8.57;;;;;;;1.03;100.00;100735.63;5032880;28;20052;-67
2024/01/22 02:42:59;;;;;;;12.40;7.47;;;;;;;1.04;100.00;100732.19;5032748;28;20113;-67
2024/01/22 02:46:24;;;;;;;8.48;4.68;;;;;;;1.06;100.00;100725.31;5032655;28;20048;-67
2024/01/22 02:49:52;;;;;;;6.18;3.50;;;;;;;1.00;100.00;100715.06;5032874;28;20128;-67
2024/01/22 02:53:12;;;;;;;7.05;3.13;;;;;;;1.06;100.00;100699.56;5032958;28;20051;-67
2024/01/22 02:56:28;;;;;;;5.15;3.22;;;;;;;0.98;100.00;100691.91;4993242;28;20412;-67
2024/01/22 03:00:01;;;;;;;5.78;2.40;;;;;;;1.14;100.00;100680.56;4993264;28;20169;-67
2024/01/22 03:03:25;;;;;;;6.22;2.58;;;;;;;1.20;100.00;100674.50;4992910;28;20048;-67
2024/01/22 03:06:43;;;;;;;5.60;1.98;;;;;;;1.35;100.00;100642.56;4992820;28;20128;-67
2024/01/22 03:10:03;;;;;;;9.27;2.30;;;;;;;1.59;100.00;100619.03;4992861;28;20475;-67
2024/01/22 03:13:22;;;;;;;4.75;2.17;;;;;;;1.63;100.00;100594.06;4993075;28;20088;-66
2024/01/22 03:16:45;;;;;;;7.25;2.38;;;;;;;1.81;100.00;100587.78;4993384;28;20157;-67
2024/01/22 03:19:57;;;;;;;5.53;1.98;;;;;;;2.20;100.00;100576.00;4997033;28;20118;-67
2024/01/22 03:23:20;;;;;;;5.85;2.00;;;;;;;2.18;100.00;100561.41;4996863;28;20065;-67
2024/01/22 03:26:25;;;;;;;5.72;2.10;;;;;;;2.42;100.00;100562.69;4996401;28;20553;-67
2024/01/22 03:29:41;;;;;;;6.32;2.25;;;;;;;2.76;100.00;100539.69;4996833;28;20040;-67
2024/01/22 03:33:06;;;;;;;7.63;1.67;;;;;;;2.47;100.00;100538.50;4996783;28;20503;-67
2024/01/22 03:36:13;;;;;;;8.95;1.70;;;;;;;2.66;100.00;100533.00;4996806;28;20044;-67
2024/01/22 03:39:24;;;;;;;5.57;2.00;;;;;;;3.08;100.00;100531.25;5017833;28;20053;-67
2024/01/22 03:42:40;;;;;;;10.32;1.48;;;;;;;3.60;100.00;100517.16;4996609;28;20459;-67
2024/01/22 03:46:05;;;;;;;5.57;1.75;;;;;;;4.01;100.00;100514.44;4996434;28;20510;-67
2024/01/22 03:49:24;;;;;;;4.55;1.38;;;;;;;4.19;100.00;100512.25;4996793;28;20045;-67
2024/01/22 03:52:46;;;;;;;4.65;1.33;;;;;;;4.13;100.00;100503.78;4996339;28;20084;-67
2024/01/22 03:56:16;;;;;;;6.40;1.40;;;;;;;4.53;100.00;100497.53;5029340;28;20072;-67
2024/01/22 03:59:48;;;;;;;11.10;2.58;;;;;;;4.75;100.00;100497.78;5035888;28;20051;-67
2024/01/22 04:03:12;;;;;;;4.00;1.55;;;;;;;4.62;100.00;100484.31;5035405;28;20041;-67
2024/01/22 04:06:32;;;;;;;5.80;1.85;;;;;;;4.90;99.19;100471.44;5035017;28;20104;-67
2024/01/22 04:10:03;;;;;;;5.07;1.60;;;;;;;4.82;99.06;100473.41;5035194;28;20040;-67
2024/01/22 04:13:27;;;;;;;6.97;1.23;;;;;;;4.70;99.71;100474.59;5034977;28;20044;-67
2024/01/22 04:16:38;;;;;;;6.82;1.60;;;;;;;4.95;99.80;100479.91;5035554;28;20103;-67
2024/01/22 04:19:52;;;;;;;7.18;1.90;;;;;;;5.00;98.33;100466.81;5035121;28;20095;-67
2024/01/22 04:23:27;;;;;;;5.00;1.27;;;;;;;4.99;98.23;100465.13;5034965;28;20056;-67
2024/01/22 04:26:41;;;;;;;3.20;1.20;;;;;;;4.93;98.83;100466.16;5034927;28;20056;-67
2024/01/22 04:29:55;;;;;;;5.53;1.58;;;;;;;4.71;98.25;100463.34;5034333;28;20036;-67
2024/01/22 04:33:15;;;;;;;5.88;1.48;;;;;;;5.02;99.33;100450.34;5035254;28;20099;-68
2024/01/22 04:36:40;;;;;;;5.72;1.27;;;;;;;5.05;98.08;100459.75;5035002;28;20072;-67
2024/01/22 04:39:47;;;;;;;6.30;1.38;;;;;;;5.18;97.71;100457.63;5034574;28;20043;-67
2024/01/22 04:43:03;;;;;;;5.60;1.83;;;;;;;5.19;98.45;100473.13;5034666;28;20056;-67
2024/01/22 04:46:22;;;;;;;4.85;1.60;;;;;;;5.27;96.47;100450.41;5034929;28;20128;-67
2024/01/22 04:49:53;;;;;;;4.93;1.45;;;;;;;5.13;97.86;100456.00;5034691;28;20125;-67
2024/01/22 04:53:16;;;;;;;3.47;1.27;;;;;;;5.10;98.48;100468.22;5034522;28;20108;-67
2024/01/22 04:56:46;;;;;;;4.72;1.42;;;;;;;5.13;99.03;100447.41;5034207;28;20124;-67
2024/01/22 05:00:10;;;;;;;4.88;1.60;;;;;;;5.25;98.59;100446.19;5034250;28;20045;-67
2024/01/22 05:03:29;;;;;;;10.82;1.98;;;;;;;5.23;99.13;100435.88;5034220;28;20578;-67
2024/01/22 05:07:21;;;;;;;5.80;1.70;;;;;;;5.24;98.50;100403.00;5033682;28;20053;-66
2024/01/22 05:10:39;;;;;;;5.47;1.52;;;;;;;5.31;97.73;100378.56;5034448;28;20044;-66
2024/01/22 05:14:02;;;;;;;5.60;1.95;;;;;;;5.28;98.71;100389.88;5033990;28;20041;-67
2024/01/22 05:17:26;;;;;;;6.53;1.83;;;;;;;5.30;98.48;100376.91;5034093;28;20434;-70
2024/01/22 05:20:51;;;;;;;4.55;1.63;;;;;;;5.41;98.16;100368.75;5034190;28;20449;-67
2024/01/22 05:24:29;;;;;;;3.40;1.13;;;;;;;5.44;97.92;100379.00;5033626;28;20045;-66
2024/01/22 05:27:56;;;;;;;5.57;1.50;;;;;;;5.53;97.30;100386.50;5051415;28;20228;-68
2024/01/22 05:31:11;;;;;;;6.07;1.67;;;;;;;5.39;98.31;100401.66;5053107;28;20110;-67
2024/01/22 05:34:29;;;;;;;7.57;1.88;;;;;;;5.31;98.40;100415.72;5051617;28;20059;-67
2024/01/22 05:37:54;;;;;;;7.97;1.80;;;;;;;5.35;99.19;100401.75;5052194;28;20043;-69
2024/01/22 05:41:07;;;;;;;4.70;1.60;;;;;;;5.39;98.54;100401.66;5051858;28;20486;-68
2024/01/22 05:44:13;;;;;;;4.82;1.52;;;;;;;5.46;98.60;100380.66;5050641;28;20079;-68
2024/01/22 05:47:18;;;;;;;5.50;1.70;;;;;;;5.35;97.94;100369.78;5051550;28;20039;-68
2024/01/22 05:50:24;;;;;;;4.88;1.40;;;;;;;5.41;98.97;100368.75;5051453;28;20040;-68
2024/01/22 05:53:28;;;;;;;9.48;1.85;;;;;;;5.68;97.56;100356.56;5052736;28;20114;-68
2024/01/22 05:56:36;;;;;;;5.25;1.25;;;;;;;5.77;96.35;100370.06;5050380;28;20438;-67
2024/01/22 05:59:50;;;;;;;6.93;1.83;;;;;;;5.71;96.84;100338.31;5052161;28;20048;-68
2024/01/22 06:03:03;;;;;;;9.13;1.88;;;;;;;5.64;96.91;100337.69;5051424;28;20488;-68
2024/01/22 06:06:08;;;;;;;9.40;1.58;;;;;;;5.59;97.30;100332.66;5051851;28;20118;-67
2024/01/22 06:09:15;;;;;;;3.83;1.50;;;;;;;5.73;96.08;100319.19;5050303;28;20063;-68
2024/01/22 06:12:23;;;;;;;4.18;1.40;;;;;;;5.92;96.25;100318.53;5052032;28;20059;-68
2024/01/22 06:15:41;;;;;;;4.10;1.70;;;;;;;5.89;96.64;100329.03;5052652;28;20048;-67
2024/01/22 06:18:45;;;;;;;5.65;2.15;;;;;;;5.79;97.71;100344.94;5052629;28;20094;-68
2024/01/22 06:21:49;;;;;;;6.25;1.77;;;;;;;5.74;98.49;100352.03;5038866;28;20456;-69
2024/01/22 06:24:58;;;;;;;4.13;1.30;;;;;;;5.74;98.88;100352.03;5033278;28;20084;-68
2024/01/22 06:28:02;;;;;;;4.93;1.40;;;;;;;5.89;99.26;100350.63;5031849;28;20122;-68
2024/01/22 06:31:08;;;;;;;4.80;1.23;;;;;;;5.96;99.09;100359.91;5041984;28;20091;-68
2024/01/22 06:34:22;;;;;;;6.05;1.65;;;;;;;5.82;99.73;100359.53;5052740;28;20047;-68
2024/01/22 06:37:29;;;;;;;5.13;1.52;;;;;;;5.88;100.00;100329.94;5052364;28;20502;-68
2024/01/22 06:40:40;;;;;;;6.05;1.60;;;;;;;5.82;99.62;100337.03;5049531;28;20192;-68
2024/01/22 06:44:05;;;;;;;8.88;2.10;;;;;;;5.81;99.79;100340.53;5032531;28;20099;-68
2024/01/22 06:47:23;;;;;;;5.00;1.90;;;;;;;5.81;98.95;100335.34;5049382;28;20410;-67
2024/01/22 06:50:46;;;;;;;5.40;1.85;;;;;;;5.86;99.27;100329.16;5044687;28;20052;-67
2024/01/22 06:54:14;;;;;;;5.38;1.50;;;;;;;5.93;98.02;100330.63;5057132;28;20060;-68
2024/01/22 06:57:47;;;;;;;6.90;2.30;;;;;;;5.83;98.56;100335.28;5038408;28;20053;-67
2024/01/22 07:01:15;;;;;;;3.45;1.42;;;;;;;5.79;98.58;100339.75;5039311;28;20044;-68
2024/01/22 07:04:26;;;;;;;6.43;2.05;;;;;;;5.85;98.73;100340.44;5039133;28;20048;-67
2024/01/22 07:07:42;;;;;;;13.10;5.60;;;;;;;5.82;98.73;100344.81;5039226;28;20430;-66
2024/01/22 07:15:12;;;;;;;4.43;1.58;;;;;;;5.93;97.94;100357.44;5039050;28;20044;-67
2024/01/22 07:18:38;;;;;;;3.50;1.33;;;;;;;5.98;97.99;100375.44;5039128;28;20557;-68
2024/01/22 07:22:08;;;;;;;7.23;1.53;;;;;;;6.04;97.31;100370.88;5039035;28;20044;-67
2024/01/22 07:25:31;;;;;;;6.18;2.03;;;;;;;6.15;96.38;100362.69;5038615;28;20271;-67
2024/01/22 07:28:48;;;;;;;6.00;1.38;;;;;;;6.08;96.47;100356.03;5037678;28;20048;-68
2024/01/22 07:32:11;;;;;;;5.75;1.80;;;;;;;6.42;98.27;100365.19;5037912;28;20092;-71
2024/01/22 07:35:33;;;;;;;6.68;1.73;;;;;;;6.58;96.04;100358.50;5037898;28;20064;-68
2024/01/22 07:38:57;;;;;;;5.00;1.30;;;;;;;6.45;94.83;100359.88;5037481;28;20056;-68
2024/01/22 07:42:18;;;;;;;3.70;1.27;;;;;;;6.28;96.32;100379.50;5037690;28;20067;-67
2024/01/22 07:45:35;;;;;;;7.47;1.90;;;;;;;6.22;96.45;100378.88;5037397;28;20061;-67
2024/01/22 07:48:49;;;;;;;4.18;1.15;;;;;;;6.34;96.91;100377.59;5037687;28;20095;-67
2024/01/22 07:51:56;;;;;;;7.07;2.72;;;;;;;6.25;96.80;100374.47;5037421;28;20052;-67
2024/01/22 07:55:05;;;;;;;3.83;1.25;;;;;;;6.22;97.49;100378.88;5044722;28;20103;-67
2024/01/22 07:58:19;;;;;;;3.03;0.90;;;;;;;6.33;97.22;100386.31;5057285;28;20047;-67
2024/01/22 08:01:31;;;;;;;3.90;1.40;;;;;;;6.47;97.30;100378.84;5057518;28;20087;-67
2024/01/22 08:04:39;;;;;;;2.42;1.20;;;;;;;6.53;96.74;100373.41;5055299;28;20130;-66
2024/01/22 08:07:43;;;;;;;2.92;1.17;;;;;;;6.79;96.58;100362.00;5054303;28;20044;-70
2024/01/22 08:10:49;;;;;;;4.07;1.23;;;;;;;6.57;96.53;100358.56;5054046;28;20059;-68
2024/01/22 08:13:56;;;;;;;3.35;0.98;;;;;;;6.59;95.74;100362.78;5054344;28;20191;-68
2024/01/22 08:17:03;;;;;;;3.47;1.08;;;;;;;6.38;96.31;100359.28;5054238;28;20443;-68
2024/01/22 08:20:12;;;;;;;2.38;0.90;;;;;;;6.51;98.27;100347.50;5054078;28;20052;-69
2024/01/22 08:23:24;;;;;;;3.00;1.05;;;;;;;6.55;97.67;100342.19;5053912;28;20044;-68
2024/01/22 08:26:41;;;;;;;2.85;1.17;;;;;;;6.48;97.84;100333.78;5053350;28;20048;-67
2024/01/22 08:29:55;;;;;;;3.35;1.00;;;;;;;6.46;98.01;100327.81;5053838;28;20128;-69
2024/01/22 08:33:00;;;;;;;3.50;1.30;;;;;;;6.55;98.95;100330.06;5053886;28;20059;-69
2024/01/22 08:36:07;;;;;;;4.65;1.65;;;;;;;6.50;98.31;100337.16;5053608;28;20120;-68
2024/01/22 08:39:12;;;;;;;4.03;1.70;;;;;;;6.35;98.45;100338.63;5053424;28;20124;-69
2024/01/22 08:42:24;;;;;;;3.00;1.30;;;;;;;6.48;99.62;100339.84;5053193;28;20047;-69
2024/01/22 08:45:31;;;;;;;2.30;0.70;;;;;;;6.58;99.80;100329.94;5053479;28;20422;-67
2024/01/22 08:48:42;;;;;;;4.32;0.85;;;;;;;6.71;100.00;100344.13;5053529;28;20505;-67
2024/01/22 08:51:48;;;;;;;5.95;0.90;;;;;;;6.82;99.73;100353.25;5053169;28;20078;-66
2024/01/22 08:55:14;;;;;;;3.47;1.58;;;;;;;6.76;99.25;100338.75;5053001;28;20096;-67
2024/01/22 08:58:52;;;;;;;2.15;0.80;;;;;;;6.81;99.39;100338.56;5053084;28;20048;-67
2024/01/22 09:02:15;;;;;;;2.70;1.05;;;;;;;6.83;99.72;100323.75;5052972;28;20497;-66
2024/01/22 09:05:44;;;;;;;2.22;0.95;;;;;;;7.09;100.00;100313.16;5052990;28;20044;-67
2024/01/22 09:09:17;;;;;;;3.33;0.80;;;;;;;7.04;98.95;100322.88;5052895;28;20094;-71
2024/01/22 09:12:29;;;;;;;2.35;0.93;;;;;;;7.19;98.71;100337.03;5052568;28;20044;-69
2024/01/22 09:15:41;;;;;;;2.80;0.80;;;;;;;7.29;97.65;100340.09;5052700;28;20047;-67
2024/01/22 09:19:07;;;;;;;2.63;0.82;;;;;;;7.55;98.58;100339.81;5052456;28;20437;-67
2024/01/22 09:22:20;;;;;;;4.85;1.00;;;;;;;7.25;99.54;100333.34;5052384;28;20083;-71
2024/01/22 09:25:45;;;;;;;3.25;0.80;;;;;;;7.15;99.49;100340.66;5052316;28;20136;-68
2024/01/22 09:29:17;;;;;;;2.63;1.33;;;;;;;7.16;100.00;100338.00;5052537;28;20399;-69
2024/01/22 09:32:42;;;;;;;2.55;1.20;;;;;;;7.35;98.63;100334.63;5052239;28;20590;-68
2024/01/22 09:36:54;;;;;;;2.10;0.90;;;;;;;7.32;99.25;100337.38;5052897;28;20056;-68
2024/01/22 09:40:19;;;;;;;1.73;0.50;;;;;;;7.26;99.95;100332.41;5051935;28;20110;-69
2024/01/22 09:43:45;;;;;;;1.42;0.50;;;;;;;7.29;99.86;100329.69;5052291;28;20104;-69
2024/01/22 09:47:15;;;;;;;1.75;0.70;;;;;;;7.26;100.00;100324.63;5051966;28;20043;-68
2024/01/22 09:50:54;;;;;;;2.20;0.60;;;;;;;7.31;100.00;100335.69;5051889;28;20071;-69
2024/01/22 09:54:24;;;;;;;1.63;0.55;;;;;;;7.26;100.00;100337.63;5052079;28;20067;-68
2024/01/22 09:57:38;;;;;;;2.33;0.45;;;;;;;7.25;100.00;100328.13;5051879;28;20445;-69
2024/01/22 10:00:45;;;;;;;3.15;0.75;;;;;;;7.17;100.00;100331.88;5052178;28;20064;-69
2024/01/22 10:03:49;;;;;;;3.25;0.80;;;;;;;7.19;100.00;100332.66;5052228;28;20059;-67
2024/01/22 10:07:08;;;;;;;1.38;0.45;;;;;;;7.22;100.00;100327.34;5039528;28;20476;-67
2024/01/22 10:14:37;;;;;;;2.03;0.70;;;;;;;7.16;100.00;100322.38;5051659;28;20090;-67
2024/01/22 10:17:51;;;;;;;2.50;0.52;;;;;;;7.01;100.00;100317.81;5051561;28;20433;-67
2024/01/22 10:21:21;;;;;;;3.70;1.60;;;;;;;7.01;100.00;100315.22;5051807;28;20524;-67
2024/01/22 10:25:02;;;;;;;2.47;0.80;;;;;;;6.95;100.00;100312.88;5051759;28;20044;-67
2024/01/22 10:28:26;;;;;;;4.55;2.03;;;;;;;7.06;100.00;100300.28;5051154;28;20062;-68
2024/01/22 10:32:00;;;;;;;2.53;1.02;;;;;;;6.96;100.00;100293.78;5051329;28;20056;-67
2024/01/22 10:35:39;;;;;;;3.13;1.00;;;;;;;6.89;100.00;100297.50;5051251;28;20106;-67
2024/01/22 10:39:15;;;;;;;2.95;1.00;;;;;;;6.82;100.00;100290.88;5051343;28;20040;-67
2024/01/22 10:42:36;;;;;;;4.03;1.10;;;;;;;6.82;100.00;100296.06;5051577;28;20051;-67
2024/01/22 10:45:49;;;;;;;2.97;0.70;;;;;;;6.92;100.00;100292.19;5051241;28;20047;-68
2024/01/22 10:48:55;;;;;;;2.28;1.17;;;;;;;6.79;100.00;100291.00;5051434;28;20071;-68
2024/01/22 10:52:01;;;;;;;2.78;0.98;;;;;;;6.77;100.00;100295.44;5050249;28;20056;-68
2024/01/22 10:55:23;;;;;;;2.20;0.90;;;;;;;6.91;100.00;100285.31;5054643;28;20052;-70
2024/01/22 10:58:47;;;;;;;8.10;3.92;;;;;;;6.80;100.00;100282.31;5051277;28;20044;-69
2024/01/22 11:02:04;;;;;;;10.00;5.95;;;;;;;6.71;100.00;100279.16;5051279;28;20418;-69
2024/01/22 11:05:38;;;;;;;10.82;4.68;;;;;;;6.70;100.00;100266.22;5051319;28;20095;-69
2024/01/22 11:09:14;;;;;;;2.50;1.35;;;;;;;6.82;100.00;100257.09;5051757;28;20044;-69
2024/01/22 11:12:43;;;;;;;5.78;2.80;;;;;;;6.87;100.00;100252.56;5051471;28;20048;-69
2024/01/22 11:16:13;;;;;;;4.45;1.65;;;;;;;6.53;100.00;100254.75;5051474;28;20330;-69
2024/01/22 11:19:39;;;;;;;2.30;0.82;;;;;;;6.37;100.00;100242.44;5051335;28;20052;-69
2024/01/22 11:23:09;;;;;;;4.22;1.80;;;;;;;6.41;100.00;100244.00;5051363;28;20079;-69
2024/01/22 11:26:34;;;;;;;5.72;4.30;;;;;;;6.40;100.00;100234.53;5051524;28;20414;-69
2024/01/22 11:30:20;;;;;;;10.10;4.82;;;;;;;6.41;100.00;100225.84;5051373;28;20048;-69
2024/01/22 11:33:50;;;;;;;3.90;1.55;;;;;;;6.42;100.00;100224.94;5051350;28;20043;-69
2024/01/22 11:37:09;;;;;;;4.97;3.58;;;;;;;6.35;100.00;100213.09;5051225;28;20039;-69
2024/01/22 11:40:48;;;;;;;4.22;2.10;;;;;;;6.31;100.00;100219.31;5052756;28;20102;-69
2024/01/22 11:43:57;;;;;;;2.83;1.60;;;;;;;6.18;100.00;100206.81;5055087;28;20063;-69
2024/01/22 11:47:15;;;;;;;3.72;2.00;;;;;;;6.26;100.00;100206.53;5055196;28;20075;-69
2024/01/22 11:50:58;;;;;;;4.03;1.67;;;;;;;6.16;100.00;100203.47;5054751;28;20501;-69
2024/01/22 11:54:11;;;;;;;3.47;1.30;;;;;;;6.08;100.00;100199.47;5054790;28;20043;-69
2024/01/22 11:57:24;;;;;;;4.55;1.73;;;;;;;6.00;100.00;100199.78;5054370;28;20219;-69
2024/01/22 12:00:52;;;;;;;3.42;1.33;;;;;;;6.01;100.00;100204.03;5054840;28;20052;-69
2024/01/22 12:04:17;;;;;;;2.80;1.52;;;;;;;5.89;100.00;100201.88;5054563;28;20099;-69
2024/01/22 12:07:51;;;;;;;6.57;4.50;;;;;;;5.81;100.00;100204.78;5054557;28;20079;-69
2024/01/22 12:11:15;;;;;;;3.75;1.90;;;;;;;5.48;100.00;100193.88;5054382;28;20048;-69
2024/01/22 12:14:32;;;;;;;3.83;1.85;;;;;;;5.66;100.00;100197.56;5053474;28;20088;-69
2024/01/22 12:17:49;;;;;;;3.40;1.30;;;;;;;5.71;100.00;100196.50;5053441;28;20063;-69
2024/01/22 12:21:22;;;;;;;5.40;3.00;;;;;;;5.54;100.00;100194.50;5053084;28;20398;-71
2024/01/22 12:25:12;;;;;;;5.20;3.25;;;;;;;5.43;100.00;100201.00;5054148;28;20067;-71
2024/01/22 12:28:43;;;;;;;9.70;7.22;;;;;;;5.70;100.00;100194.78;5054101;28;20139;-83
2024/01/22 12:32:17;;;;;;;33.40;16.38;;;;;;;5.58;100.00;100192.66;5053984;28;20107;-65
2024/01/22 12:35:45;;;;;;;23.60;15.00;;;;;;;5.73;100.00;100179.09;5053889;28;20043;-69
2024/01/22 12:39:29;;;;;;;16.58;10.57;;;;;;;5.59;100.00;100171.00;5053942;28;20121;-69
2024/01/22 12:42:57;;;;;;;7.60;5.18;;;;;;;5.91;100.00;100176.72;5054074;28;20044;-66
2024/01/22 12:46:23;;;;;;;8.02;5.78;;;;;;;6.03;100.00;100171.94;5053912;28;20048;-69
2024/01/22 12:49:52;;;;;;;11.52;7.03;;;;;;;5.93;100.00;100155.00;5053788;28;20052;-72
2024/01/22 12:53:15;;;;;;;18.38;14.15;;;;;;;6.05;100.00;100143.31;5053678;28;20048;-69
2024/01/22 12:56:54;;;;;;;16.05;12.55;;;;;;;6.06;100.00;100145.00;5053411;28;20064;-69
2024/01/22 13:00:12;;;;;;;9.35;7.05;;;;;;;6.59;100.00;100128.97;5053607;28;20040;-69
2024/01/22 13:03:37;;;;;;;8.70;5.82;;;;;;;6.55;100.00;100129.19;5053471;28;20162;-68
2024/01/22 13:07:10;;;;;;;4.50;2.03;;;;;;;7.01;100.00;100138.44;5053601;28;20044;-69
2024/01/22 13:10:31;;;;;;;5.07;2.67;;;;;;;7.08;100.00;100144.22;5049067;28;20041;-69
2024/01/22 13:13:46;;;;;;;5.15;1.50;;;;;;;7.20;100.00;100143.69;5041400;28;20052;-69
2024/01/22 13:16:54;;;;;;;3.58;1.83;;;;;;;6.98;100.00;100135.97;5033434;28;20063;-72
2024/01/22 13:19:59;;;;;;;3.30;2.08;;;;;;;7.07;100.00;100134.75;5041985;28;20477;-71
2024/01/22 13:23:13;;;;;;;5.47;1.92;;;;;;;7.08;100.00;100136.41;5046077;28;20044;-75
2024/01/22 13:26:22;;;;;;;3.22;1.52;;;;;;;7.13;100.00;100137.91;5045771;28;20407;-70
2024/01/22 13:29:31;;;;;;;3.90;1.95;;;;;;;7.28;100.00;100153.75;5045778;28;20120;-72
2024/01/22 13:32:41;;;;;;;5.10;1.30;;;;;;;7.91;100.00;100154.31;5059778;28;20202;-74
2024/01/22 13:35:48;;;;;;;3.47;0.80;;;;;;;8.29;100.00;100162.03;5041578;28;20136;-74
2024/01/22 13:38:54;;;;;;;3.08;0.73;;;;;;;8.63;100.00;100157.81;5032794;28;20115;-71
2024/01/22 13:42:02;;;;;;;3.17;1.40;;;;;;;8.87;99.50;100172.25;5032980;28;20171;-70
2024/01/22 13:45:08;;;;;;;3.55;0.90;;;;;;;9.12;98.22;100171.78;5032768;28;20044;-72
2024/01/22 13:48:12;;;;;;;7.20;1.48;;;;;;;8.95;99.00;100169.22;5032921;28;20191;-70
2024/01/22 13:51:17;;;;;;;4.93;2.38;;;;;;;8.98;98.62;100195.16;5054222;28;20155;-71
2024/01/22 13:54:23;;;;;;;2.70;0.70;;;;;;;9.05;95.94;100173.88;5031934;28;20040;-73
2024/01/22 13:57:30;;;;;;;4.45;1.38;;;;;;;9.11;93.87;100154.47;5046534;28;20518;-72
2024/01/22 14:00:34;;;;;;;5.80;1.88;;;;;;;9.08;93.97;100159.84;5045701;28;20050;-70
2024/01/22 14:03:39;;;;;;;3.90;1.30;;;;;;;9.03;95.20;100173.13;5054546;28;20047;-69
2024/01/22 14:06:44;;;;;;;3.60;1.33;;;;;;;9.08;97.01;100159.84;5044949;28;20051;-70
2024/01/22 14:09:47;;;;;;;2.33;0.68;;;;;;;9.12;97.93;100156.16;5046283;28;20043;-69
2024/01/22 14:12:51;;;;;;;;;;;;;;;9.02;98.91;100173.19;5046486;28;20080;-69
2024/01/22 14:15:55;;;;;;;8.30;2.50;;;;;;;8.96;99.97;100171.75;5049452;28;19923;-70
2024/01/22 14:18:59;;;;;;;4.25;1.35;;;;;;;8.95;100.00;100177.06;5052445;28;20133;-69
2024/01/22 14:22:13;;;;;;;7.10;3.00;;;;;;;8.88;100.00;100184.34;5056151;28;20473;-69
2024/01/22 14:25:39;;;;;;;9.88;4.07;;;;;;;8.90;100.00;100187.69;5050169;28;20060;-69
2024/01/22 14:30:09;;;;;;;8.63;3.28;;;;;;;8.97;99.17;100173.44;5052970;28;20556;-69
2024/01/22 14:33:22;;;;;;;8.65;3.72;;;;;;;9.02;98.51;100181.03;5051659;28;20128;-69
2024/01/22 14:36:26;;;;;;;8.68;4.60;;;;;;;8.91;98.80;100184.19;5051807;28;20107;-70
2024/01/22 14:39:29;;;;;;;;;;;;;;;8.81;98.75;100182.97;5052036;28;20128;-68
2024/01/22 14:42:45;;;;;;;4.72;1.10;;;;;;;8.77;98.86;100189.25;5048976;28;20002;-68
2024/01/22 14:46:43;;;;;;;6.60;2.17;;;;;;;8.86;98.40;100188.78;5053585;28;20051;-68
2024/01/22 14:49:46;;;;;;;4.85;2.30;;;;;;;8.66;98.12;100183.72;5051118;28;20044;-68
2024/01/22 14:52:50;;;;;;;8.15;2.88;;;;;;;8.42;99.12;100197.03;5051158;28;20056;-69
2024/01/22 14:55:54;;;;;;;4.95;1.33;;;;;;;8.39;100.00;100210.19;5052005;28;20526;-69
2024/01/22 14:58:57;;;;;;;6.47;1.40;;;;;;;8.39;100.00;100207.59;5049171;28;20040;-69
2024/01/22 15:02:01;;;;;;;3.58;0.65;;;;;;;8.43;100.00;100209.16;5051131;28;20117;-69
2024/01/22 15:05:05;;;;;;;16.27;10.38;;;;;;;8.05;98.96;100196.16;5052623;28;20124;-68
2024/01/22 15:08:09;;;;;;;6.80;2.03;;;;;;;7.99;100.00;100199.06;5054479;28;20044;-69
2024/01/22 15:11:13;;;;;;;8.15;2.92;;;;;;;7.64;100.00;100214.53;5054619;28;20075;-68
2024/01/22 15:14:39;;;;;;;5.30;2.30;;;;;;;7.60;100.00;100244.22;5050222;28;20426;-70
2024/01/22 15:17:58;;;;;;;8.25;3.17;;;;;;;7.34;100.00;100244.50;5049251;28;20055;-68
2024/01/22 15:21:09;;;;;;;;;;;;;;;7.20;100.00;100250.28;5046318;28;20136;-69
2024/01/22 15:24:46;;;;;;;13.05;7.32;;;;;;;7.04;100.00;100259.66;5051296;28;19920;-69
2024/01/22 15:27:51;;;;;;;7.00;2.25;;;;;;;6.91;100.00;100261.91;5052987;28;20098;-68
2024/01/22 15:30:58;;;;;;;7.90;5.35;;;;;;;6.64;100.00;100277.72;5052790;28;20043;-69
2024/01/22 15:34:09;;;;;;;7.03;3.17;;;;;;;6.75;100.00;100291.13;5052305;28;20044;-69